sensor_id;sensor_type;location;lat;lon;timestamp;pressure;altitude;pressure_sealevel;temperature;humidity
46598;BME280;32318;48.858;8.252;2023-07-13T00:07:25;100286.66;;;21.82;51.68
46598;BME280;32318;48.858;8.252;2023-07-13T00:15:26;100285.72;;;21.76;51.74
46598;BME280;32318;48.858;8.252;2023-07-13T00:23:26;100286.44;;;21.59;52.07
46598;BME280;32318;48.858;8.252;2023-07-13T00:31:27;100273.09;;;21.58;52.17
46598;BME280;32318;48.858;8.252;2023-07-13T00:39:27;100284.16;;;21.44;53.07
46598;BME280;32318;48.858;8.252;2023-07-13T00:47:27;100289.09;;;21.24;53.78
46598;BME280;32318;48.858;8.252;2023-07-13T00:55:27;100284.94;;;21.21;53.65
46598;BME280;32318;48.858;8.252;2023-07-13T01:03:28;100287.56;;;21.16;53.64
46598;BME280;32318;48.858;8.252;2023-07-13T01:11:29;100278.81;;;21.14;53.85
46598;BME280;32318;48.858;8.252;2023-07-13T01:19:35;100261.91;;;21.00;56.21
46598;BME280;32318;48.858;8.252;2023-07-13T01:27:36;100273.56;;;20.89;54.50
46598;BME280;32318;48.858;8.252;2023-07-13T01:35:36;100274.00;;;20.55;55.36
46598;BME280;32318;48.858;8.252;2023-07-13T01:43:36;100282.09;;;20.43;55.52
46598;BME280;32318;48.858;8.252;2023-07-13T01:51:37;100280.00;;;20.27;56.00
46598;BME280;32318;48.858;8.252;2023-07-13T01:59:37;100285.44;;;20.27;55.76
46598;BME280;32318;48.858;8.252;2023-07-13T02:07:38;100268.44;;;20.19;56.43
46598;BME280;32318;48.858;8.252;2023-07-13T02:15:39;100262.72;;;20.09;56.18
46598;BME280;32318;48.858;8.252;2023-07-13T02:23:40;100267.06;;;20.10;56.47
46598;BME280;32318;48.858;8.252;2023-07-13T02:31:41;100277.97;;;19.85;57.35
46598;BME280;32318;48.858;8.252;2023-07-13T02:39:41;100264.38;;;19.92;56.96
46598;BME280;32318;48.858;8.252;2023-07-13T02:47:41;100267.97;;;19.85;57.14
46598;BME280;32318;48.858;8.252;2023-07-13T02:55:42;100273.72;;;19.70;57.61
46598;BME280;32318;48.858;8.252;2023-07-13T03:03:48;100274.84;;;19.63;57.74
46598;BME280;32318;48.858;8.252;2023-07-13T03:11:48;100287.63;;;19.55;57.27
46598;BME280;32318;48.858;8.252;2023-07-13T03:19:48;100287.75;;;19.42;57.91
46598;BME280;32318;48.858;8.252;2023-07-13T03:27:50;100286.78;;;19.30;57.68
46598;BME280;32318;48.858;8.252;2023-07-13T03:35:51;100303.59;;;19.13;58.20
46598;BME280;32318;48.858;8.252;2023-07-13T03:43:52;100308.38;;;19.11;58.58
46598;BME280;32318;48.858;8.252;2023-07-13T03:51:52;100312.78;;;19.05;59.41
46598;BME280;32318;48.858;8.252;2023-07-13T03:59:52;100319.06;;;18.99;58.20
46598;BME280;32318;48.858;8.252;2023-07-13T04:07:53;100319.31;;;18.98;58.54
46598;BME280;32318;48.858;8.252;2023-07-13T04:15:53;100314.31;;;18.94;58.57
46598;BME280;32318;48.858;8.252;2023-07-13T04:23:53;100319.97;;;18.93;58.16
46598;BME280;32318;48.858;8.252;2023-07-13T04:31:54;100323.06;;;18.96;58.94
46598;BME280;32318;48.858;8.252;2023-07-13T04:39:54;100334.91;;;18.95;58.57
46598;BME280;32318;48.858;8.252;2023-07-13T04:47:54;100344.22;;;19.06;58.43
46598;BME280;32318;48.858;8.252;2023-07-13T04:55:56;100349.41;;;19.08;58.13
46598;BME280;32318;48.858;8.252;2023-07-13T05:03:56;100350.22;;;19.15;57.92
46598;BME280;32318;48.858;8.252;2023-07-13T05:11:59;100352.19;;;19.26;57.65
46598;BME280;32318;48.858;8.252;2023-07-13T05:19:59;100363.22;;;19.32;58.00
46598;BME280;32318;48.858;8.252;2023-07-13T05:27:59;100359.00;;;19.36;57.64
46598;BME280;32318;48.858;8.252;2023-07-13T05:36:00;100360.50;;;19.57;57.36
46598;BME280;32318;48.858;8.252;2023-07-13T05:44:03;100363.88;;;19.78;57.27
46598;BME280;32318;48.858;8.252;2023-07-13T05:52:03;100387.38;;;20.09;56.72
46598;BME280;32318;48.858;8.252;2023-07-13T06:00:04;100395.31;;;20.29;56.80
46598;BME280;32318;48.858;8.252;2023-07-13T06:08:06;100407.44;;;20.45;56.80
46598;BME280;32318;48.858;8.252;2023-07-13T06:16:07;100409.88;;;21.03;55.67
46598;BME280;32318;48.858;8.252;2023-07-13T06:24:08;100416.75;;;21.36;55.02
46598;BME280;32318;48.858;8.252;2023-07-13T06:32:08;100419.81;;;21.58;54.28
46598;BME280;32318;48.858;8.252;2023-07-13T06:40:09;100425.31;;;21.51;54.41
46598;BME280;32318;48.858;8.252;2023-07-13T06:48:09;100440.25;;;21.72;54.32
46598;BME280;32318;48.858;8.252;2023-07-13T06:56:10;100450.69;;;21.99;53.48
46598;BME280;32318;48.858;8.252;2023-07-13T07:04:11;100460.97;;;22.21;52.91
46598;BME280;32318;48.858;8.252;2023-07-13T07:12:11;100454.97;;;22.54;52.81
46598;BME280;32318;48.858;8.252;2023-07-13T07:20:11;100457.06;;;22.64;52.38
46598;BME280;32318;48.858;8.252;2023-07-13T07:28:15;100459.44;;;22.72;51.02
46598;BME280;32318;48.858;8.252;2023-07-13T07:36:18;100464.97;;;22.90;51.50
46598;BME280;32318;48.858;8.252;2023-07-13T07:44:18;100473.94;;;22.90;50.99
46598;BME280;32318;48.858;8.252;2023-07-13T07:52:18;100468.19;;;22.75;50.73
46598;BME280;32318;48.858;8.252;2023-07-13T08:00:19;100477.75;;;22.89;50.89
46598;BME280;32318;48.858;8.252;2023-07-13T08:08:19;100485.56;;;22.97;49.96
46598;BME280;32318;48.858;8.252;2023-07-13T08:16:19;100479.09;;;23.27;49.44
46598;BME280;32318;48.858;8.252;2023-07-13T08:24:23;100480.44;;;23.42;46.59
46598;BME280;32318;48.858;8.252;2023-07-13T08:32:24;100477.88;;;23.81;47.14
46598;BME280;32318;48.858;8.252;2023-07-13T08:40:26;100471.78;;;24.08;46.60
46598;BME280;32318;48.858;8.252;2023-07-13T08:48:33;100480.19;;;24.23;44.25
46598;BME280;32318;48.858;8.252;2023-07-13T08:56:34;100471.31;;;24.50;43.75
46598;BME280;32318;48.858;8.252;2023-07-13T09:04:41;100470.63;;;24.60;41.36
46598;BME280;32318;48.858;8.252;2023-07-13T09:29:18;100468.66;;;24.95;40.64
46598;BME280;32318;48.858;8.252;2023-07-13T09:37:22;100465.16;;;24.99;40.98
46598;BME280;32318;48.858;8.252;2023-07-13T09:45:30;100471.44;;;25.00;39.04
46598;BME280;32318;48.858;8.252;2023-07-13T09:53:31;100461.97;;;25.35;39.53
46598;BME280;32318;48.858;8.252;2023-07-13T10:01:36;100468.03;;;25.64;39.66
46598;BME280;32318;48.858;8.252;2023-07-13T10:09:37;100468.00;;;25.59;38.94
46598;BME280;32318;48.858;8.252;2023-07-13T10:17:38;100466.19;;;25.75;38.50
46598;BME280;32318;48.858;8.252;2023-07-13T10:25:42;100455.91;;;25.88;37.91
46598;BME280;32318;48.858;8.252;2023-07-13T10:33:44;100445.00;;;25.93;38.58
46598;BME280;32318;48.858;8.252;2023-07-13T10:41:48;100464.44;;;26.24;37.68
46598;BME280;32318;48.858;8.252;2023-07-13T10:49:54;100456.22;;;26.24;37.71
46598;BME280;32318;48.858;8.252;2023-07-13T10:58:00;100452.97;;;26.27;37.45
46598;BME280;32318;48.858;8.252;2023-07-13T11:06:11;100437.66;;;26.31;36.25
46598;BME280;32318;48.858;8.252;2023-07-13T11:14:38;100439.22;;;26.22;36.61
46598;BME280;32318;48.858;8.252;2023-07-13T11:30:59;100435.38;;;26.18;37.26
46598;BME280;32318;48.858;8.252;2023-07-13T11:39:24;100438.94;;;25.86;36.58
46598;BME280;32318;48.858;8.252;2023-07-13T11:47:29;100449.44;;;25.61;37.65
46598;BME280;32318;48.858;8.252;2023-07-13T11:55:31;100446.13;;;25.59;37.44
46598;BME280;32318;48.858;8.252;2023-07-13T12:03:33;100440.84;;;26.18;36.24
46598;BME280;32318;48.858;8.252;2023-07-13T12:11:35;100425.66;;;26.42;35.50
46598;BME280;32318;48.858;8.252;2023-07-13T12:19:38;100415.06;;;26.56;35.20
46598;BME280;32318;48.858;8.252;2023-07-13T12:27:38;100417.41;;;26.96;34.27
46598;BME280;32318;48.858;8.252;2023-07-13T12:35:45;100425.47;;;27.44;33.72
46598;BME280;32318;48.858;8.252;2023-07-13T12:43:46;100426.88;;;27.67;32.52
46598;BME280;32318;48.858;8.252;2023-07-13T12:51:50;100419.41;;;28.03;31.60
46598;BME280;32318;48.858;8.252;2023-07-13T12:59:52;100429.31;;;27.58;32.70
46598;BME280;32318;48.858;8.252;2023-07-13T13:07:53;100433.16;;;27.93;32.48
46598;BME280;32318;48.858;8.252;2023-07-13T13:15:53;100421.59;;;28.01;32.27
46598;BME280;32318;48.858;8.252;2023-07-13T13:23:53;100417.16;;;28.37;31.36
46598;BME280;32318;48.858;8.252;2023-07-13T13:31:55;100417.50;;;27.99;31.18
46598;BME280;32318;48.858;8.252;2023-07-13T13:39:55;100412.84;;;27.84;31.82
46598;BME280;32318;48.858;8.252;2023-07-13T13:47:55;100412.84;;;28.15;31.13
46598;BME280;32318;48.858;8.252;2023-07-13T13:55:56;100411.19;;;28.03;31.41
46598;BME280;32318;48.858;8.252;2023-07-13T14:03:56;100421.84;;;28.31;30.15
46598;BME280;32318;48.858;8.252;2023-07-13T14:11:57;100405.38;;;28.36;30.06
46598;BME280;32318;48.858;8.252;2023-07-13T14:19:57;100403.88;;;28.70;30.20
46598;BME280;32318;48.858;8.252;2023-07-13T14:27:59;100419.88;;;28.52;30.38
46598;BME280;32318;48.858;8.252;2023-07-13T14:36:02;100425.16;;;28.38;30.29
46598;BME280;32318;48.858;8.252;2023-07-13T14:44:14;100407.03;;;28.27;29.44
46598;BME280;32318;48.858;8.252;2023-07-13T14:52:20;100415.59;;;27.99;29.76
46598;BME280;32318;48.858;8.252;2023-07-13T15:00:22;100422.63;;;28.47;29.83
46598;BME280;32318;48.858;8.252;2023-07-13T15:08:24;100416.31;;;28.52;30.04
46598;BME280;32318;48.858;8.252;2023-07-13T15:16:25;100419.41;;;28.35;30.29
46598;BME280;32318;48.858;8.252;2023-07-13T15:24:27;100396.34;;;28.20;29.35
46598;BME280;32318;48.858;8.252;2023-07-13T15:32:27;100406.25;;;28.06;30.04
46598;BME280;32318;48.858;8.252;2023-07-13T15:40:27;100407.34;;;28.20;29.67
46598;BME280;32318;48.858;8.252;2023-07-13T15:48:28;100401.88;;;28.10;29.59
46598;BME280;32318;48.858;8.252;2023-07-13T15:56:28;100392.81;;;28.04;30.18
46598;BME280;32318;48.858;8.252;2023-07-13T16:04:29;100393.91;;;28.18;30.29
46598;BME280;32318;48.858;8.252;2023-07-13T16:12:29;100388.16;;;27.99;30.58
46598;BME280;32318;48.858;8.252;2023-07-13T16:20:30;100391.44;;;27.86;30.77
46598;BME280;32318;48.858;8.252;2023-07-13T16:28:30;100398.59;;;27.77;30.69
46598;BME280;32318;48.858;8.252;2023-07-13T16:36:31;100404.38;;;27.70;30.72
46598;BME280;32318;48.858;8.252;2023-07-13T16:44:33;100401.34;;;27.71;30.91
46598;BME280;32318;48.858;8.252;2023-07-13T16:52:33;100411.75;;;27.49;31.32
46598;BME280;32318;48.858;8.252;2023-07-13T17:00:33;100399.59;;;26.98;31.40
46598;BME280;32318;48.858;8.252;2023-07-13T17:08:37;100407.66;;;26.62;32.36
46598;BME280;32318;48.858;8.252;2023-07-13T17:16:37;100409.31;;;26.63;32.64
46598;BME280;32318;48.858;8.252;2023-07-13T17:24:37;100399.09;;;26.43;33.07
46598;BME280;32318;48.858;8.252;2023-07-13T17:32:39;100407.66;;;26.62;33.14
46598;BME280;32318;48.858;8.252;2023-07-13T17:40:40;100401.66;;;26.60;32.75
46598;BME280;32318;48.858;8.252;2023-07-13T17:48:41;100413.16;;;26.62;33.23
46598;BME280;32318;48.858;8.252;2023-07-13T17:56:43;100409.88;;;26.60;32.97
46598;BME280;32318;48.858;8.252;2023-07-13T18:04:43;100420.72;;;26.39;33.83
46598;BME280;32318;48.858;8.252;2023-07-13T18:12:46;100422.28;;;26.25;33.65
46598;BME280;32318;48.858;8.252;2023-07-13T18:20:46;100424.78;;;25.94;34.17
46598;BME280;32318;48.858;8.252;2023-07-13T18:28:47;100427.97;;;25.80;34.42
46598;BME280;32318;48.858;8.252;2023-07-13T18:44:50;100430.44;;;25.49;35.21
46598;BME280;32318;48.858;8.252;2023-07-13T18:52:51;100419.78;;;25.26;35.73
46598;BME280;32318;48.858;8.252;2023-07-13T19:00:52;100425.56;;;25.02;36.31
46598;BME280;32318;48.858;8.252;2023-07-13T19:08:57;100439.38;;;24.90;37.75
46598;BME280;32318;48.858;8.252;2023-07-13T19:25:35;100443.09;;;24.62;37.73
46598;BME280;32318;48.858;8.252;2023-07-13T19:33:35;100463.81;;;24.40;38.66
46598;BME280;32318;48.858;8.252;2023-07-13T19:41:36;100470.47;;;24.27;39.33
46598;BME280;32318;48.858;8.252;2023-07-13T19:49:37;100477.91;;;24.15;39.85
46598;BME280;32318;48.858;8.252;2023-07-13T19:57:39;100479.31;;;24.01;40.01
46598;BME280;32318;48.858;8.252;2023-07-13T20:05:40;100497.44;;;23.78;41.30
46598;BME280;32318;48.858;8.252;2023-07-13T20:13:41;100503.06;;;23.71;41.56
46598;BME280;32318;48.858;8.252;2023-07-13T20:21:42;100509.97;;;23.62;41.88
46598;BME280;32318;48.858;8.252;2023-07-13T20:29:45;100520.44;;;23.53;42.89
46598;BME280;32318;48.858;8.252;2023-07-13T20:37:46;100511.50;;;23.41;42.49
46598;BME280;32318;48.858;8.252;2023-07-13T20:45:56;100513.69;;;23.15;44.57
46598;BME280;32318;48.858;8.252;2023-07-13T20:53:57;100520.94;;;22.85;43.84
46598;BME280;32318;48.858;8.252;2023-07-13T21:01:57;100519.09;;;22.74;43.70
46598;BME280;32318;48.858;8.252;2023-07-13T21:09:57;100522.28;;;22.47;44.51
46598;BME280;32318;48.858;8.252;2023-07-13T21:17:59;100524.13;;;22.35;45.21
46598;BME280;32318;48.858;8.252;2023-07-13T21:26:02;100547.44;;;22.31;45.42
46598;BME280;32318;48.858;8.252;2023-07-13T21:34:29;100540.34;;;22.18;47.25
46598;BME280;32318;48.858;8.252;2023-07-13T21:42:29;100540.31;;;22.06;45.22
46598;BME280;32318;48.858;8.252;2023-07-13T21:50:40;100545.13;;;21.92;47.36
46598;BME280;32318;48.858;8.252;2023-07-13T21:58:41;100547.34;;;21.83;45.92
46598;BME280;32318;48.858;8.252;2023-07-13T22:06:41;100540.56;;;21.74;45.59
46598;BME280;32318;48.858;8.252;2023-07-13T22:14:43;100543.69;;;21.59;46.01
46598;BME280;32318;48.858;8.252;2023-07-13T22:22:43;100536.44;;;21.53;45.79
46598;BME280;32318;48.858;8.252;2023-07-13T22:30:45;100550.09;;;21.46;46.43
46598;BME280;32318;48.858;8.252;2023-07-13T22:38:48;100538.13;;;21.35;46.28
46598;BME280;32318;48.858;8.252;2023-07-13T22:46:49;100547.66;;;21.26;46.85
46598;BME280;32318;48.858;8.252;2023-07-13T22:54:54;100535.91;;;21.13;46.84
46598;BME280;32318;48.858;8.252;2023-07-13T23:02:54;100536.28;;;20.98;47.15
46598;BME280;32318;48.858;8.252;2023-07-13T23:10:54;100527.22;;;20.86;47.16
46598;BME280;32318;48.858;8.252;2023-07-13T23:19:01;100527.97;;;20.75;47.34
46598;BME280;32318;48.858;8.252;2023-07-13T23:27:02;100513.84;;;20.66;47.55
46598;BME280;32318;48.858;8.252;2023-07-13T23:35:03;100511.28;;;20.52;47.39
46598;BME280;32318;48.858;8.252;2023-07-13T23:43:03;100518.50;;;20.33;48.81
46598;BME280;32318;48.858;8.252;2023-07-13T23:51:04;100510.28;;;20.21;48.43
46598;BME280;32318;48.858;8.252;2023-07-13T23:59:05;100510.75;;;20.18;48.08
